createdAt,value
2023-07-12T00:01:20.147Z,19.39
2023-07-12T00:03:47.500Z,19.36
2023-07-12T00:06:19.178Z,19.34
2023-07-12T00:08:46.936Z,19.29
2023-07-12T00:11:20.071Z,19.26
2023-07-12T00:13:48.028Z,19.25
2023-07-12T00:16:28.248Z,19.22
2023-07-12T00:18:56.600Z,19.20
2023-07-12T00:21:26.193Z,19.17
2023-07-12T00:23:54.678Z,19.18
2023-07-12T00:26:28.616Z,19.14
2023-07-12T00:28:57.015Z,19.11
2023-07-12T00:31:25.190Z,19.09
2023-07-12T00:33:53.097Z,19.06
2023-07-12T00:36:23.952Z,19.02
2023-07-12T00:38:51.732Z,18.99
2023-07-12T00:41:31.298Z,18.97
2023-07-12T00:44:06.060Z,18.91
2023-07-12T00:46:35.394Z,18.88
2023-07-12T00:49:03.075Z,18.84
2023-07-12T00:51:46.819Z,18.81
2023-07-12T00:54:16.769Z,18.79
2023-07-12T00:56:44.099Z,18.82
2023-07-12T00:59:17.017Z,18.82
2023-07-12T01:01:45.389Z,18.77
2023-07-12T01:04:17.984Z,18.75
2023-07-12T01:06:44.882Z,18.73
2023-07-12T01:09:15.726Z,18.70
2023-07-12T01:11:43.482Z,18.70
2023-07-12T01:14:15.908Z,18.70
2023-07-12T01:16:48.904Z,18.68
2023-07-12T01:19:16.011Z,18.63
2023-07-12T01:21:45.429Z,18.56
2023-07-12T01:24:12.769Z,18.44
2023-07-12T01:26:43.789Z,18.33
2023-07-12T01:29:11.762Z,18.26
2023-07-12T01:31:39.502Z,18.16
2023-07-12T01:34:07.815Z,18.08
2023-07-12T01:36:35.221Z,18.06
2023-07-12T01:39:04.881Z,18.06
2023-07-12T01:41:32.704Z,17.99
2023-07-12T01:44:00.047Z,17.91
2023-07-12T01:46:27.189Z,17.87
2023-07-12T01:48:54.170Z,17.94
2023-07-12T01:51:22.159Z,17.88
2023-07-12T01:53:49.551Z,17.80
2023-07-12T01:56:18.145Z,17.69
2023-07-12T01:58:45.276Z,17.57
2023-07-12T02:01:13.085Z,17.49
2023-07-12T02:03:40.756Z,17.46
2023-07-12T02:06:07.753Z,17.42
2023-07-12T02:08:34.722Z,17.37
2023-07-12T02:11:01.538Z,17.31
2023-07-12T02:13:28.333Z,17.22
2023-07-12T02:15:55.219Z,17.15
2023-07-12T02:18:22.527Z,17.10
2023-07-12T02:20:49.548Z,17.08
2023-07-12T02:23:16.469Z,17.07
2023-07-12T02:25:43.484Z,17.02
2023-07-12T02:28:10.534Z,17.02
2023-07-12T02:30:38.869Z,17.02
2023-07-12T02:33:06.216Z,16.99
2023-07-12T02:35:33.121Z,16.97
2023-07-12T02:38:01.933Z,16.93
2023-07-12T02:40:29.891Z,16.91
2023-07-12T02:42:57.379Z,16.92
2023-07-12T02:45:25.228Z,16.94
2023-07-12T02:47:52.808Z,16.94
2023-07-12T02:50:20.156Z,16.94
2023-07-12T02:52:48.369Z,16.93
2023-07-12T02:55:15.562Z,16.90
2023-07-12T02:57:42.570Z,16.90
2023-07-12T03:00:10.146Z,16.90
2023-07-12T03:02:37.136Z,16.85
2023-07-12T03:05:04.299Z,16.81
2023-07-12T03:07:31.335Z,16.80
2023-07-12T03:09:58.507Z,16.80
2023-07-12T03:12:25.779Z,16.78
2023-07-12T03:14:54.111Z,16.79
2023-07-12T03:17:21.669Z,16.77
2023-07-12T03:19:48.746Z,16.76
2023-07-12T03:22:15.687Z,16.72
2023-07-12T03:24:42.622Z,16.71
2023-07-12T03:27:09.658Z,16.68
2023-07-12T03:29:36.636Z,16.70
2023-07-12T03:32:04.142Z,16.68
2023-07-12T03:34:32.738Z,16.68
2023-07-12T03:37:01.700Z,16.68
2023-07-12T03:39:29.288Z,16.63
2023-07-12T03:41:56.128Z,16.64
2023-07-12T03:44:23.404Z,16.66
2023-07-12T03:46:50.289Z,16.66
2023-07-12T03:49:17.390Z,16.65
2023-07-12T03:51:44.339Z,16.65
2023-07-12T03:54:11.201Z,16.66
2023-07-12T03:56:38.095Z,16.67
2023-07-12T03:59:05.115Z,16.67
2023-07-12T04:01:32.081Z,16.69
2023-07-12T04:03:59.091Z,16.67
2023-07-12T04:06:26.203Z,16.66
2023-07-12T04:08:53.081Z,16.61
2023-07-12T04:11:31.402Z,16.63
2023-07-12T04:14:00.558Z,16.62
2023-07-12T04:16:27.517Z,16.61
2023-07-12T04:18:54.877Z,16.60
2023-07-12T04:21:22.244Z,16.51
2023-07-12T04:23:50.570Z,16.52
2023-07-12T04:26:19.439Z,16.53
2023-07-12T04:28:50.487Z,16.53
2023-07-12T04:31:20.532Z,16.55
2023-07-12T04:33:48.062Z,16.55
2023-07-12T04:36:18.222Z,16.54
2023-07-12T04:38:45.487Z,16.50
2023-07-12T04:41:13.196Z,16.51
2023-07-12T04:43:40.276Z,16.52
2023-07-12T04:46:07.207Z,16.51
2023-07-12T04:48:34.817Z,16.55
2023-07-12T04:51:02.359Z,16.56
2023-07-12T04:53:29.652Z,16.58
2023-07-12T04:55:56.663Z,16.62
2023-07-12T04:58:23.619Z,16.63
2023-07-12T05:00:50.524Z,16.63
2023-07-12T05:03:17.681Z,16.57
2023-07-12T05:05:45.484Z,16.57
2023-07-12T05:08:12.868Z,16.56
2023-07-12T05:10:39.887Z,16.56
2023-07-12T05:13:06.987Z,16.53
2023-07-12T05:15:34.049Z,16.53
2023-07-12T05:18:01.032Z,16.56
2023-07-12T05:20:28.494Z,16.56
2023-07-12T05:22:55.449Z,16.57
2023-07-12T05:25:22.328Z,16.63
2023-07-12T05:27:49.302Z,16.71
2023-07-12T05:30:16.625Z,16.73
2023-07-12T05:32:43.563Z,16.73
2023-07-12T05:35:10.409Z,16.71
2023-07-12T05:37:37.383Z,16.75
2023-07-12T05:40:06.732Z,16.78
2023-07-12T05:42:34.339Z,16.85
2023-07-12T05:45:01.793Z,16.96
2023-07-12T05:47:28.931Z,17.10
2023-07-12T05:49:57.084Z,17.05
2023-07-12T05:52:24.029Z,17.07
2023-07-12T05:54:54.138Z,17.06
2023-07-12T05:57:21.380Z,17.13
2023-07-12T05:59:48.251Z,17.12
2023-07-12T06:02:15.969Z,17.15
2023-07-12T06:04:42.954Z,17.24
2023-07-12T06:07:09.899Z,17.24
2023-07-12T06:09:36.778Z,17.27
2023-07-12T06:12:03.906Z,17.47
2023-07-12T06:14:30.761Z,17.70
2023-07-12T06:16:57.821Z,17.71
2023-07-12T06:19:24.979Z,17.71
2023-07-12T06:21:52.176Z,17.88
2023-07-12T06:24:19.565Z,17.98
2023-07-12T06:26:46.564Z,18.26
2023-07-12T06:29:13.498Z,18.52
2023-07-12T06:31:40.486Z,18.55
2023-07-12T06:34:07.774Z,18.41
2023-07-12T06:36:35.092Z,18.24
2023-07-12T06:39:02.528Z,18.19
2023-07-12T06:41:29.474Z,18.16
2023-07-12T06:43:56.334Z,18.28
2023-07-12T06:46:23.741Z,18.29
2023-07-12T06:48:52.560Z,18.24
2023-07-12T06:51:21.716Z,18.24
2023-07-12T06:53:48.750Z,18.22
2023-07-12T06:56:15.932Z,18.20
2023-07-12T06:58:42.767Z,18.13
2023-07-12T07:01:11.172Z,18.19
2023-07-12T07:03:38.804Z,18.26
2023-07-12T07:06:06.078Z,18.24
2023-07-12T07:08:33.390Z,18.24
2023-07-12T07:11:02.136Z,18.32
2023-07-12T07:13:29.103Z,18.41
2023-07-12T07:15:56.800Z,18.43
2023-07-12T07:18:24.330Z,18.48
2023-07-12T07:20:52.557Z,18.52
2023-07-12T07:23:19.853Z,18.86
2023-07-12T07:25:47.390Z,19.08
2023-07-12T07:28:14.353Z,19.18
2023-07-12T07:30:41.177Z,19.22
2023-07-12T07:33:08.825Z,19.22
2023-07-12T07:35:38.209Z,19.12
2023-07-12T07:38:05.116Z,19.10
2023-07-12T07:40:32.380Z,19.05
2023-07-12T07:42:59.382Z,18.94
2023-07-12T07:45:26.520Z,18.96
2023-07-12T07:47:53.480Z,19.04
2023-07-12T07:50:21.791Z,19.00
2023-07-12T07:52:49.360Z,18.99
2023-07-12T07:55:16.796Z,19.25
2023-07-12T07:57:43.855Z,19.28
2023-07-12T08:00:12.768Z,19.64
2023-07-12T08:02:40.068Z,20.17
2023-07-12T08:05:07.759Z,20.59
2023-07-12T08:07:43.387Z,20.43
2023-07-12T08:10:14.382Z,20.69
2023-07-12T08:12:41.534Z,20.88
2023-07-12T08:15:09.110Z,21.09
2023-07-12T08:17:37.240Z,21.24
2023-07-12T08:20:05.786Z,21.27
2023-07-12T08:22:33.764Z,21.06
2023-07-12T08:25:01.174Z,21.23
2023-07-12T08:27:28.218Z,21.57
2023-07-12T08:29:55.229Z,21.86
2023-07-12T08:32:22.210Z,22.03
2023-07-12T08:34:49.378Z,22.40
2023-07-12T08:37:16.472Z,22.56
2023-07-12T08:39:43.479Z,22.60
2023-07-12T08:42:18.239Z,22.68
2023-07-12T08:44:45.466Z,22.85
2023-07-12T08:47:20.943Z,23.09
2023-07-12T08:49:49.793Z,22.84
2023-07-12T08:52:19.290Z,22.45
2023-07-12T08:54:46.790Z,22.87
2023-07-12T08:57:26.126Z,23.39
2023-07-12T09:00:03.641Z,23.77
2023-07-12T09:02:30.679Z,23.46
2023-07-12T09:05:01.010Z,23.04
2023-07-12T09:07:33.020Z,22.99
2023-07-12T09:10:01.701Z,23.00
2023-07-12T09:12:33.193Z,23.06
2023-07-12T09:15:03.868Z,23.29
2023-07-12T09:17:40.050Z,23.00
2023-07-12T09:20:25.515Z,22.59
2023-07-12T09:22:53.027Z,22.46
2023-07-12T09:25:23.254Z,22.51
2023-07-12T09:27:50.711Z,22.45
2023-07-12T09:30:23.622Z,22.31
2023-07-12T09:32:53.901Z,22.13
2023-07-12T09:35:48.601Z,22.02
2023-07-12T09:38:18.271Z,21.92
2023-07-12T09:40:47.669Z,21.76
2023-07-12T09:43:22.918Z,22.03
2023-07-12T09:46:19.628Z,22.10
2023-07-12T09:49:24.424Z,22.03
2023-07-12T09:52:13.303Z,22.70
2023-07-12T09:54:58.640Z,22.93
2023-07-12T09:57:39.609Z,22.51
2023-07-12T10:00:26.719Z,22.13
2023-07-12T10:03:18.433Z,21.79
2023-07-12T10:06:05.176Z,21.54
2023-07-12T10:08:58.942Z,21.51
2023-07-12T10:11:37.698Z,22.01
2023-07-12T10:14:09.778Z,22.82
2023-07-12T10:16:46.340Z,23.43
2023-07-12T10:19:22.617Z,23.55
2023-07-12T10:21:55.640Z,23.24
2023-07-12T10:24:29.706Z,23.00
2023-07-12T10:26:58.827Z,22.65
2023-07-12T10:29:35.689Z,22.56
2023-07-12T10:32:07.008Z,22.62
2023-07-12T10:34:42.526Z,23.03
2023-07-12T10:37:31.013Z,23.78
2023-07-12T10:39:59.387Z,24.21
2023-07-12T10:42:26.240Z,23.95
2023-07-12T10:44:56.349Z,23.61
2023-07-12T10:47:29.083Z,23.30
2023-07-12T10:50:00.436Z,23.27
2023-07-12T10:52:31.382Z,23.11
2023-07-12T10:55:04.459Z,22.94
2023-07-12T10:57:47.536Z,22.78
2023-07-12T11:00:17.325Z,22.73
2023-07-12T11:02:51.584Z,23.51
2023-07-12T11:05:56.881Z,23.53
2023-07-12T11:08:32.439Z,23.44
2023-07-12T11:11:23.957Z,23.08
2023-07-12T11:14:00.830Z,22.74
2023-07-12T11:16:28.342Z,22.58
2023-07-12T11:18:59.708Z,22.58
2023-07-12T11:21:51.196Z,23.31
2023-07-12T11:24:54.279Z,24.18
2023-07-12T11:27:41.014Z,24.16
2023-07-12T11:30:28.082Z,24.19
2023-07-12T11:33:04.122Z,24.52
2023-07-12T11:35:34.209Z,24.51
2023-07-12T11:38:05.353Z,24.18
2023-07-12T11:40:37.112Z,24.00
2023-07-12T11:43:25.854Z,24.25
2023-07-12T11:45:55.709Z,24.10
2023-07-12T11:48:24.588Z,23.64
2023-07-12T11:50:54.249Z,23.44
2023-07-12T11:53:22.477Z,24.01
2023-07-12T11:55:49.838Z,24.27
2023-07-12T11:58:25.426Z,24.05
2023-07-12T12:00:55.299Z,23.80
2023-07-12T12:03:22.601Z,23.62
2023-07-12T12:05:50.526Z,23.44
2023-07-12T12:08:27.145Z,23.73
2023-07-12T12:10:55.623Z,24.21
2023-07-12T12:13:22.659Z,24.04
2023-07-12T12:15:53.206Z,23.81
2023-07-12T12:18:24.000Z,23.53
2023-07-12T12:21:17.323Z,23.63
2023-07-12T12:23:58.805Z,23.73
2023-07-12T12:26:29.227Z,23.95
2023-07-12T12:29:02.406Z,24.50
2023-07-12T12:31:35.036Z,25.01
2023-07-12T12:34:15.833Z,25.17
2023-07-12T12:36:59.475Z,25.39
2023-07-12T12:39:26.791Z,25.62
2023-07-12T12:42:20.640Z,25.62
2023-07-12T12:44:47.538Z,25.16
2023-07-12T12:47:21.387Z,24.97
2023-07-12T12:51:02.246Z,25.08
2023-07-12T12:55:17.343Z,25.01
2023-07-12T13:05:32.367Z,24.40
2023-07-12T13:15:51.873Z,25.05
2023-07-12T13:19:02.539Z,25.61
2023-07-12T13:21:25.932Z,25.33
2023-07-12T13:23:53.406Z,25.18
2023-07-12T13:26:22.673Z,25.34
2023-07-12T13:28:50.405Z,25.34
2023-07-12T13:31:21.237Z,25.09
2023-07-12T13:36:37.244Z,25.88
2023-07-12T13:46:45.364Z,26.05
2023-07-12T13:49:14.686Z,26.02
2023-07-12T13:51:42.664Z,25.84
2023-07-12T13:54:10.580Z,25.36
2023-07-12T14:01:44.024Z,25.55
2023-07-12T14:09:20.946Z,25.69
2023-07-12T14:11:49.044Z,25.79
2023-07-12T14:14:16.731Z,25.74
2023-07-12T14:16:43.897Z,25.85
2023-07-12T14:19:19.648Z,25.45
2023-07-12T14:21:46.570Z,25.67
2023-07-12T14:24:15.619Z,25.97
2023-07-12T14:26:42.761Z,26.15
2023-07-12T14:31:57.090Z,26.05
2023-07-12T14:34:24.906Z,26.13
2023-07-12T14:36:51.835Z,26.15
2023-07-12T14:39:18.877Z,26.27
2023-07-12T14:41:45.797Z,25.96
2023-07-12T14:44:16.138Z,25.69
2023-07-12T14:46:44.142Z,25.45
2023-07-12T14:49:11.158Z,25.46
2023-07-12T14:51:39.639Z,25.53
2023-07-12T14:54:14.347Z,25.16
2023-07-12T14:56:41.780Z,25.18
2023-07-12T14:59:13.586Z,25.07
2023-07-12T15:01:40.810Z,25.27
2023-07-12T15:04:13.269Z,25.33
2023-07-12T15:06:40.931Z,25.32
2023-07-12T15:09:13.459Z,25.40
2023-07-12T15:11:47.234Z,25.51
2023-07-12T15:14:14.342Z,25.28
2023-07-12T15:16:43.665Z,25.25
2023-07-12T15:19:11.219Z,25.30
2023-07-12T15:21:39.664Z,25.19
2023-07-12T15:24:10.968Z,25.30
2023-07-12T15:26:37.872Z,25.21
2023-07-12T15:29:04.829Z,24.82
2023-07-12T15:31:34.837Z,24.68
2023-07-12T15:34:03.188Z,24.96
2023-07-12T15:36:31.842Z,25.21
2023-07-12T15:38:59.422Z,25.07
2023-07-12T15:41:29.445Z,24.87
2023-07-12T15:43:59.057Z,24.86
2023-07-12T15:46:29.617Z,24.72
2023-07-12T15:48:58.280Z,24.72
2023-07-12T15:51:35.321Z,24.54
2023-07-12T15:54:04.306Z,24.27
2023-07-12T15:56:37.466Z,24.12
2023-07-12T15:59:05.683Z,24.21
2023-07-12T16:01:33.165Z,24.30
2023-07-12T16:04:00.601Z,24.39
2023-07-12T16:06:28.139Z,24.46
2023-07-12T16:08:55.736Z,24.49
2023-07-12T16:11:30.541Z,24.38
2023-07-12T16:14:01.329Z,24.24
2023-07-12T16:16:31.364Z,24.12
2023-07-12T16:18:58.830Z,24.05
2023-07-12T16:21:28.398Z,24.06
2023-07-12T16:23:57.185Z,23.83
2023-07-12T16:26:35.473Z,23.67
2023-07-12T16:29:05.193Z,23.64
2023-07-12T16:31:44.531Z,23.71
2023-07-12T16:34:37.996Z,23.91
2023-07-12T16:37:19.474Z,23.95
2023-07-12T16:39:47.669Z,23.91
2023-07-12T16:42:29.975Z,23.85
2023-07-12T16:44:57.232Z,23.78
2023-07-12T16:47:24.655Z,23.77
2023-07-12T16:49:51.871Z,23.83
2023-07-12T16:52:22.626Z,23.87
2023-07-12T16:54:50.136Z,23.80
2023-07-12T16:57:21.477Z,23.77
2023-07-12T16:59:51.038Z,23.81
2023-07-12T17:02:30.171Z,23.88
2023-07-12T17:04:58.032Z,23.86
2023-07-12T17:07:26.468Z,23.81
2023-07-12T17:09:54.357Z,23.60
2023-07-12T17:12:30.826Z,23.47
2023-07-12T17:14:57.926Z,23.44
2023-07-12T17:17:24.995Z,23.34
2023-07-12T17:19:54.612Z,23.18
2023-07-12T17:22:22.211Z,23.06
2023-07-12T17:24:50.060Z,22.89
2023-07-12T17:27:22.016Z,22.81
2023-07-12T17:29:50.330Z,22.63
2023-07-12T17:32:26.540Z,22.49
2023-07-12T17:34:53.606Z,22.38
2023-07-12T17:37:20.727Z,22.35
2023-07-12T17:39:58.692Z,22.27
2023-07-12T17:42:35.010Z,22.27
2023-07-12T17:45:04.038Z,22.24
2023-07-12T17:47:33.320Z,22.19
2023-07-12T17:50:00.631Z,22.11
2023-07-12T17:52:32.404Z,22.05
2023-07-12T17:54:59.664Z,22.03
2023-07-12T17:57:28.547Z,21.93
2023-07-12T17:59:56.165Z,21.84
2023-07-12T18:02:26.980Z,21.77
2023-07-12T18:04:54.184Z,21.69
2023-07-12T18:07:25.954Z,21.60
2023-07-12T18:09:53.998Z,21.54
2023-07-12T18:12:23.843Z,21.45
2023-07-12T18:14:51.977Z,21.39
2023-07-12T18:17:21.998Z,21.38
2023-07-12T18:19:50.184Z,21.30
2023-07-12T18:22:21.870Z,21.23
2023-07-12T18:24:49.977Z,21.17
2023-07-12T18:27:19.676Z,21.05
2023-07-12T18:29:47.663Z,20.98
2023-07-12T18:32:19.928Z,20.94
2023-07-12T18:34:51.034Z,20.92
2023-07-12T18:37:20.733Z,20.88
2023-07-12T18:39:53.006Z,20.84
2023-07-12T18:42:21.536Z,20.79
2023-07-12T18:44:49.145Z,20.74
2023-07-12T18:47:17.326Z,20.68
2023-07-12T18:49:48.767Z,20.57
2023-07-12T18:52:19.716Z,20.52
2023-07-12T18:54:46.958Z,20.47
2023-07-12T18:57:15.883Z,20.41
2023-07-12T18:59:47.065Z,20.36
2023-07-12T19:02:21.525Z,20.31
2023-07-12T19:04:49.920Z,20.24
2023-07-12T19:07:25.266Z,20.19
2023-07-12T19:09:52.699Z,20.09
2023-07-12T19:12:22.527Z,20.04
2023-07-12T19:14:51.764Z,19.96
2023-07-12T19:17:19.763Z,19.91
2023-07-12T19:19:48.957Z,19.88
2023-07-12T19:22:20.254Z,19.85
2023-07-12T19:24:50.918Z,19.79
2023-07-12T19:27:34.151Z,19.74
2023-07-12T19:30:13.406Z,19.69
2023-07-12T19:32:40.464Z,19.65
2023-07-12T19:35:16.804Z,19.60
2023-07-12T19:37:44.043Z,19.56
2023-07-12T19:40:11.506Z,19.51
2023-07-12T19:42:38.569Z,19.49
2023-07-12T19:45:07.254Z,19.49
2023-07-12T19:47:34.479Z,19.46
2023-07-12T19:50:01.543Z,19.42
2023-07-12T19:52:29.841Z,19.39
2023-07-12T19:54:56.861Z,19.36
2023-07-12T19:57:24.482Z,19.30
2023-07-12T19:59:51.435Z,19.27
2023-07-12T20:02:22.418Z,19.21
2023-07-12T20:04:49.586Z,19.14
2023-07-12T20:07:16.598Z,19.10
2023-07-12T20:09:43.699Z,19.05
2023-07-12T20:12:10.951Z,19.00
2023-07-12T20:14:38.189Z,18.92
2023-07-12T20:17:06.900Z,18.86
2023-07-12T20:19:35.636Z,18.83
2023-07-12T20:22:03.044Z,18.76
2023-07-12T20:24:30.172Z,18.72
2023-07-12T20:26:57.573Z,18.67
2023-07-12T20:29:24.599Z,18.62
2023-07-12T20:32:00.179Z,18.58
2023-07-12T20:34:27.920Z,18.52
2023-07-12T20:36:54.903Z,18.48
2023-07-12T20:39:24.504Z,18.44
2023-07-12T20:41:53.020Z,18.39
2023-07-12T20:44:19.990Z,18.35
2023-07-12T20:46:46.986Z,18.31
2023-07-12T20:49:14.143Z,18.27
2023-07-12T20:51:41.915Z,18.23
2023-07-12T20:54:12.343Z,18.22
2023-07-12T20:56:40.991Z,18.19
2023-07-12T20:59:10.247Z,18.15
2023-07-12T21:01:37.302Z,18.12
2023-07-12T21:04:04.534Z,18.10
2023-07-12T21:06:31.623Z,18.07
2023-07-12T21:08:59.400Z,18.06
2023-07-12T21:11:26.409Z,18.03
2023-07-12T21:13:53.808Z,17.99
2023-07-12T21:16:21.144Z,17.95
2023-07-12T21:18:49.954Z,17.94
2023-07-12T21:21:17.133Z,17.92
2023-07-12T21:23:44.261Z,17.89
2023-07-12T21:26:12.278Z,17.86
2023-07-12T21:28:40.231Z,17.84
2023-07-12T21:31:12.329Z,17.81
2023-07-12T21:33:39.563Z,17.78
2023-07-12T21:36:06.890Z,17.78
2023-07-12T21:38:35.110Z,17.72
2023-07-12T21:41:08.913Z,17.68
2023-07-12T21:43:37.166Z,17.65
2023-07-12T21:46:05.367Z,17.61
2023-07-12T21:48:33.317Z,17.57
2023-07-12T21:51:00.506Z,17.54
2023-07-12T21:53:27.469Z,17.54
2023-07-12T21:55:54.466Z,17.52
2023-07-12T21:58:22.422Z,17.48
2023-07-12T22:00:49.739Z,17.40
2023-07-12T22:03:16.847Z,17.40
2023-07-12T22:05:45.598Z,17.39
2023-07-12T22:08:14.096Z,17.36
2023-07-12T22:10:41.977Z,17.32
2023-07-12T22:13:09.344Z,17.28
2023-07-12T22:15:37.168Z,17.25
2023-07-12T22:18:05.611Z,17.23
2023-07-12T22:20:32.889Z,17.23
2023-07-12T22:23:00.146Z,17.21
2023-07-12T22:25:27.305Z,17.21
2023-07-12T22:27:54.835Z,17.18
2023-07-12T22:30:35.351Z,17.16
2023-07-12T22:33:02.966Z,17.15
2023-07-12T22:35:31.132Z,17.16
2023-07-12T22:37:59.414Z,17.14
2023-07-12T22:40:28.486Z,17.14
2023-07-12T22:42:55.665Z,17.16
2023-07-12T22:45:23.067Z,17.20
2023-07-12T22:47:50.082Z,17.21
2023-07-12T22:50:18.144Z,17.23
2023-07-12T22:52:45.665Z,17.22
2023-07-12T22:55:13.375Z,17.22
2023-07-12T22:57:44.657Z,17.20
2023-07-12T23:00:14.603Z,17.20
2023-07-12T23:02:41.795Z,17.17
2023-07-12T23:05:11.509Z,17.15
2023-07-12T23:07:38.995Z,17.12
2023-07-12T23:10:07.213Z,17.11
2023-07-12T23:12:34.358Z,17.11
2023-07-12T23:15:01.573Z,17.13
2023-07-12T23:17:28.630Z,17.12
2023-07-12T23:19:55.672Z,17.10
2023-07-12T23:22:23.710Z,17.07
2023-07-12T23:24:51.333Z,17.05
2023-07-12T23:27:19.202Z,17.06
2023-07-12T23:29:46.572Z,17.04
2023-07-12T23:32:14.600Z,17.01
2023-07-12T23:34:42.200Z,16.99
2023-07-12T23:37:10.783Z,16.98
2023-07-12T23:39:39.656Z,16.97
2023-07-12T23:42:17.570Z,16.95
2023-07-12T23:44:46.031Z,16.95
2023-07-12T23:47:13.504Z,16.93
2023-07-12T23:49:40.755Z,16.89
2023-07-12T23:52:09.176Z,16.84
2023-07-12T23:54:36.167Z,16.83
2023-07-12T23:57:03.186Z,16.82
2023-07-12T23:59:30.190Z,16.79
